Nearby METAR Reports

 

KAWO - Arlington Muni, Washington, USA
Distance from station: WSW 26mi, 42km
Updated: Sun, 20-Apr-2014 9:35am PDT
Overcast
Overcast
 Wind from SE
Wind: SE 8 mph , 13 km/h
Temperature: 52°F , 11°C
Dew Point: 43°F , 6°C
Humidity: 72%
Barometer: 30.32 inHg , 1026.8 hPa
Clouds: Overcast
Visibility: 10 miles , 16 km
Cloud details: Partly cloudy 4600 ft
Partly cloudy 5000 ft
Overcast 6000 ft
2014/04/20 16:35 KAWO 201635Z AUTO 13007KT 080V150 10SM SCT046 SCT050 OVC060 11/06 A3032 RMK AO1
KPAE - Everett, Washington, USA
Distance from station: SW 39mi, 62km
Updated: Sun, 20-Apr-2014 8:53am PDT
Overcast
Overcast
 Wind from SSE
Wind: SSE 12 mph , 19 km/h, Gust: 16 mph , 26 km/h
Temperature: 48°F , 9°C
Wind Chill: 43°F , 6°C
Dew Point: 37°F , 3°C
Humidity: 66%
Barometer: 30.29 inHg , 1025.7 hPa
Clouds: Overcast
Visibility: 10 miles , 16 km
Cloud details: Overcast 2900 ft
2014/04/20 15:53 KPAE 201553Z 16010G14KT 10SM OVC029 09/03 A3029 RMK AO2 SLP258 T00890033
 
KBVS - Burlington/Mt V, Washington, USA
Distance from station: WNW 40mi, 64km
Updated: Sun, 20-Apr-2014 9:35am PDT
Mostly cloudy
Mostly cloudy
 Wind from ESE
Wind: ESE 12 mph , 19 km/h
Temperature: 52°F , 11°C
Dew Point: 43°F , 6°C
Humidity: 72%
Barometer: 30.30 inHg , 1026.1 hPa
Clouds: Mostly cloudy
Visibility: 7 miles , 11 km
Cloud details: Mostly cloudy 2300 ft
2014/04/20 16:35 KBVS 201635Z AUTO 12010KT 7SM BKN023 11/06 A3030 RMK A01 P000
KNUW - Whidbey Is. Nas, Washington, USA
Distance from station: W 48mi, 78km
Updated: Sun, 20-Apr-2014 9:19am PDT
Mostly cloudy
Mostly cloudy
 Wind from SE
Wind: SE 16 mph , 26 km/h
Temperature: 54°F , 12°C
Dew Point: 43°F , 6°C
Humidity: 67%
Barometer: 30.28 inHg , 1025.4 hPa
Clouds: Mostly cloudy
Visibility: 10 miles , 16 km
Cloud details: Mostly cloudy 2100 ft
Mostly cloudy 8000 ft
2014/04/20 16:19 KNUW 201619Z 14014KT 10SM BKN021 BKN080 12/06 A3028 RMK AO2 T01170061 $
 
KBLI - Bellingham, Washington, USA
Distance from station: NW 57mi, 91km
Updated: Sun, 20-Apr-2014 8:53am PDT
Overcast
Overcast
 Wind from calm
Wind: Calm
Temperature: 48°F , 9°C
Dew Point: 41°F , 5°C
Humidity: 76%
Barometer: 30.28 inHg , 1025.4 hPa
Clouds: Overcast
Visibility: 10 miles , 16 km
Cloud details: Overcast 8000 ft
2014/04/20 15:53 KBLI 201553Z 00000KT 10SM OVC080 09/05 A3028 RMK AO2 SLP262 T00940050
KBFI - Seattle/Boeing, Washington, USA
Distance from station: SW 58mi, 94km
Updated: Sun, 20-Apr-2014 8:53am PDT
Few Clouds
Few Clouds
 Wind from SE
Wind: SE 9 mph , 15 km/h
Temperature: 52°F , 11°C
Dew Point: 37°F , 3°C
Humidity: 58%
Barometer: 30.30 inHg , 1026.1 hPa
Clouds: Few Clouds
Visibility: 10 miles , 16 km
Cloud details: Few Clouds 4100 ft
2014/04/20 15:53 KBFI 201553Z 14008KT 10SM FEW041 11/03 A3030 RMK AO2 SLP260 T01060033